Elverson, PA (19520)

11:49 AM EDT on August 30, 2014 (GMT -0400)
Mountainview | Change Station
CLOSE
Current Station
Personal Weather Station
Location: Morgantown, PA
Elevation: 682 ft
Nearby Weather Stations

Elev 682 ft 40.14 °N, 75.86 °W | Updated 32 minutes ago

Overcast
Overcast
70.9 °F
Feels Like 70.9 °F
N
2.7
Wind Variable Wind from SSW

Today
High -- | Low -- °F
--% Chance of Precip.
Yesterday
High -- | Low -- °F
Precip. -- in
6:28 AM 7:37 PM
Waxing Crescent, 22% visible
Pressure 30.26 in
Visibility 10.0 miles
Clouds Mostly Cloudy 3200 ft
Mostly Cloudy 4600 ft
Dew Point 66 °F
Humidity 85%
Rainfall 0.00 in
Snow Depth Not available.
UV 4 out of 12
Pollen 9.80 out of 12
Air Quality Not available.
Flu Activity Not available.
METAR KMQS 301535Z AUTO 14005KT 10SM BKN032 BKN046 22/18 A3026 RMK AO2

More Conditions Fewer Conditions

Pressure 30.26 in
Visibility 10.0 miles
Clouds Mostly Cloudy 3200 ft
Mostly Cloudy 4600 ft
Dew Point 66 °F
Humidity 85%
Rainfall 0.00 in
Snow Depth Not available.
UV 4 out of 12
Pollen 9.80 out of 12
Air Quality Not available.
Flu Activity Not available.
METAR KMQS 301535Z AUTO 14005KT 10SM BKN032 BKN046 22/18 A3026 RMK AO2

More Conditions Fewer Conditions

10-Day Weather Forecast

Almanac

Astronomy

Aug. 30, 2014 Rise Set
Actual Time 6:28 AM EDT 7:37 PM EDT
Civil Twilight 6:00 AM EDT 8:05 PM EDT
Nautical Twilight 5:27 AM EDT 8:39 PM EDT
Astronomical Twilight 4:52 AM EDT 9:13 PM EDT
Moon 11:14 AM EDT 10:10 PM EDT
Length of Visible Light 14h 05m
Length of Day
13h 09m
Tomorrow will be 2m 33s shorter.
Waxing Crescent, 22% of the Moon is Illuminated
Today
Waxing Crescent
Sep 2
First Quarter
Sep 8
Full
Sep 15
Last Quarter
Sep 24
New

Today's Extremes

State Highs State Lows

Community

WunderPhotos

Upload Photos

1,748,550 photos uploaded!

WunderBlogs® & News

Nearby

Snow Depth

Station Depth Elevation
No new snow has been reported.

Earthquake Activity

City Distance Mag. Time & Date
No recent earthquake activity has been reported nearby.
Minimum magnitude displayed is 2.5.

Coastal Water Temperatures

Place Temperature
No Stations Reporting

Nearby Weather Stations